sensor_id;sensor_type;location;lat;lon;timestamp;pressure;altitude;pressure_sealevel;temperature;humidity
5574;BME280;2563;52.242;7.956;2022-10-17T00:02:22;100743.06;;;11.94;100.00
5574;BME280;2563;52.242;7.956;2022-10-17T00:04:47;100743.00;;;11.97;100.00
5574;BME280;2563;52.242;7.956;2022-10-17T00:07:13;100748.41;;;11.88;100.00
5574;BME280;2563;52.242;7.956;2022-10-17T00:09:41;100757.19;;;11.78;100.00
5574;BME280;2563;52.242;7.956;2022-10-17T00:12:07;100757.91;;;11.84;100.00
5574;BME280;2563;52.242;7.956;2022-10-17T00:14:32;100763.97;;;11.82;100.00
5574;BME280;2563;52.242;7.956;2022-10-17T00:16:58;100765.81;;;11.78;100.00
5574;BME280;2563;52.242;7.956;2022-10-17T00:19:23;100769.47;;;11.69;100.00
5574;BME280;2563;52.242;7.956;2022-10-17T00:21:49;100780.59;;;11.71;100.00
5574;BME280;2563;52.242;7.956;2022-10-17T00:24:14;100783.25;;;11.68;100.00
5574;BME280;2563;52.242;7.956;2022-10-17T00:26:39;100786.56;;;11.74;100.00
5574;BME280;2563;52.242;7.956;2022-10-17T00:29:05;100788.91;;;11.83;100.00
5574;BME280;2563;52.242;7.956;2022-10-17T00:31:30;100783.00;;;11.78;100.00
5574;BME280;2563;52.242;7.956;2022-10-17T00:33:55;100793.25;;;11.81;100.00
5574;BME280;2563;52.242;7.956;2022-10-17T00:36:23;100785.66;;;11.75;100.00
5574;BME280;2563;52.242;7.956;2022-10-17T00:38:51;100784.94;;;11.69;100.00
5574;BME280;2563;52.242;7.956;2022-10-17T00:41:20;100790.41;;;11.57;100.00
5574;BME280;2563;52.242;7.956;2022-10-17T00:44:02;100775.91;;;11.52;100.00
5574;BME280;2563;52.242;7.956;2022-10-17T00:46:35;100788.63;;;11.59;100.00
5574;BME280;2563;52.242;7.956;2022-10-17T00:49:05;100788.31;;;11.71;100.00
5574;BME280;2563;52.242;7.956;2022-10-17T00:51:41;100794.94;;;11.82;100.00
5574;BME280;2563;52.242;7.956;2022-10-17T00:54:08;100798.25;;;11.87;100.00
5574;BME280;2563;52.242;7.956;2022-10-17T00:56:34;100801.94;;;11.77;100.00
5574;BME280;2563;52.242;7.956;2022-10-17T00:59:00;100813.19;;;11.74;100.00
5574;BME280;2563;52.242;7.956;2022-10-17T01:01:26;100813.31;;;11.68;100.00
5574;BME280;2563;52.242;7.956;2022-10-17T01:03:51;100824.13;;;11.84;100.00
5574;BME280;2563;52.242;7.956;2022-10-17T01:06:17;100815.56;;;11.82;100.00
5574;BME280;2563;52.242;7.956;2022-10-17T01:08:42;100820.81;;;11.79;100.00
5574;BME280;2563;52.242;7.956;2022-10-17T01:13:45;100813.22;;;11.73;100.00
5574;BME280;2563;52.242;7.956;2022-10-17T01:16:35;100821.84;;;11.71;100.00
5574;BME280;2563;52.242;7.956;2022-10-17T01:27:23;100830.00;;;11.53;100.00
5574;BME280;2563;52.242;7.956;2022-10-17T01:32:39;100821.16;;;11.63;100.00
5574;BME280;2563;52.242;7.956;2022-10-17T01:35:12;100814.31;;;11.62;100.00
5574;BME280;2563;52.242;7.956;2022-10-17T01:38:12;100813.00;;;11.46;100.00
5574;BME280;2563;52.242;7.956;2022-10-17T01:40:45;100816.53;;;11.42;100.00
5574;BME280;2563;52.242;7.956;2022-10-17T01:43:25;100821.84;;;11.36;100.00
5574;BME280;2563;52.242;7.956;2022-10-17T01:46:02;100817.53;;;11.35;100.00
5574;BME280;2563;52.242;7.956;2022-10-17T01:48:36;100820.91;;;11.38;100.00
5574;BME280;2563;52.242;7.956;2022-10-17T01:51:12;100819.63;;;11.56;100.00
5574;BME280;2563;52.242;7.956;2022-10-17T01:53:46;100822.03;;;11.64;100.00
5574;BME280;2563;52.242;7.956;2022-10-17T01:56:14;100818.22;;;11.79;100.00
5574;BME280;2563;52.242;7.956;2022-10-17T01:58:54;100818.22;;;11.79;100.00
5574;BME280;2563;52.242;7.956;2022-10-17T02:01:21;100829.00;;;11.59;100.00
5574;BME280;2563;52.242;7.956;2022-10-17T02:03:49;100819.69;;;11.55;100.00
5574;BME280;2563;52.242;7.956;2022-10-17T02:06:15;100828.03;;;11.64;100.00
5574;BME280;2563;52.242;7.956;2022-10-17T02:08:42;100829.56;;;11.71;100.00
5574;BME280;2563;52.242;7.956;2022-10-17T02:11:15;100827.94;;;11.67;100.00
5574;BME280;2563;52.242;7.956;2022-10-17T02:16:40;100832.06;;;11.76;100.00
5574;BME280;2563;52.242;7.956;2022-10-17T02:19:26;100832.28;;;11.65;100.00
5574;BME280;2563;52.242;7.956;2022-10-17T02:27:16;100857.56;;;11.88;100.00
5574;BME280;2563;52.242;7.956;2022-10-17T02:29:50;100856.28;;;11.69;100.00
5574;BME280;2563;52.242;7.956;2022-10-17T02:32:24;100850.91;;;11.78;100.00
5574;BME280;2563;52.242;7.956;2022-10-17T02:34:53;100857.63;;;11.85;100.00
5574;BME280;2563;52.242;7.956;2022-10-17T02:37:22;100857.22;;;12.02;100.00
5574;BME280;2563;52.242;7.956;2022-10-17T02:39:49;100866.19;;;11.86;100.00
5574;BME280;2563;52.242;7.956;2022-10-17T02:42:16;100876.34;;;11.94;100.00
5574;BME280;2563;52.242;7.956;2022-10-17T02:44:43;100872.75;;;11.99;100.00
5574;BME280;2563;52.242;7.956;2022-10-17T02:47:21;100864.88;;;12.05;100.00
5574;BME280;2563;52.242;7.956;2022-10-17T02:49:50;100866.28;;;12.19;100.00
5574;BME280;2563;52.242;7.956;2022-10-17T02:52:44;100876.44;;;12.25;100.00
5574;BME280;2563;52.242;7.956;2022-10-17T02:55:23;100882.88;;;12.41;100.00
5574;BME280;2563;52.242;7.956;2022-10-17T02:57:56;100884.31;;;12.51;100.00
5574;BME280;2563;52.242;7.956;2022-10-17T03:00:23;100885.50;;;12.72;100.00
5574;BME280;2563;52.242;7.956;2022-10-17T03:02:51;100890.09;;;12.92;100.00
5574;BME280;2563;52.242;7.956;2022-10-17T03:05:22;100906.06;;;13.36;100.00
5574;BME280;2563;52.242;7.956;2022-10-17T03:07:48;100903.44;;;13.66;100.00
5574;BME280;2563;52.242;7.956;2022-10-17T03:10:14;100912.16;;;13.90;100.00
5574;BME280;2563;52.242;7.956;2022-10-17T03:12:39;100909.53;;;13.92;100.00
5574;BME280;2563;52.242;7.956;2022-10-17T03:15:05;100920.72;;;13.92;100.00
5574;BME280;2563;52.242;7.956;2022-10-17T03:17:31;100925.06;;;13.92;100.00
5574;BME280;2563;52.242;7.956;2022-10-17T03:19:56;100923.59;;;14.10;100.00
5574;BME280;2563;52.242;7.956;2022-10-17T03:22:22;100933.13;;;14.09;100.00
5574;BME280;2563;52.242;7.956;2022-10-17T03:24:47;100937.09;;;14.19;100.00
5574;BME280;2563;52.242;7.956;2022-10-17T03:27:12;100945.72;;;14.20;100.00
5574;BME280;2563;52.242;7.956;2022-10-17T03:29:38;100970.44;;;14.29;100.00
5574;BME280;2563;52.242;7.956;2022-10-17T03:32:03;100982.41;;;14.33;100.00
5574;BME280;2563;52.242;7.956;2022-10-17T03:34:29;100981.09;;;14.19;100.00
5574;BME280;2563;52.242;7.956;2022-10-17T03:36:54;100985.31;;;14.22;100.00
5574;BME280;2563;52.242;7.956;2022-10-17T03:39:20;100997.28;;;14.26;100.00
5574;BME280;2563;52.242;7.956;2022-10-17T03:41:45;101012.03;;;14.24;100.00
5574;BME280;2563;52.242;7.956;2022-10-17T03:44:10;101016.81;;;14.36;100.00
5574;BME280;2563;52.242;7.956;2022-10-17T03:46:36;101022.06;;;14.35;100.00
5574;BME280;2563;52.242;7.956;2022-10-17T03:49:01;101037.31;;;14.44;100.00
5574;BME280;2563;52.242;7.956;2022-10-17T03:51:26;101044.75;;;14.55;100.00
5574;BME280;2563;52.242;7.956;2022-10-17T03:53:52;101033.78;;;14.45;100.00
5574;BME280;2563;52.242;7.956;2022-10-17T03:56:20;101057.53;;;14.59;100.00
5574;BME280;2563;52.242;7.956;2022-10-17T03:58:46;101060.25;;;14.56;100.00
5574;BME280;2563;52.242;7.956;2022-10-17T04:01:14;101068.72;;;14.61;100.00
5574;BME280;2563;52.242;7.956;2022-10-17T04:03:39;101069.16;;;14.46;100.00
5574;BME280;2563;52.242;7.956;2022-10-17T04:06:05;101073.19;;;14.56;100.00
5574;BME280;2563;52.242;7.956;2022-10-17T04:08:32;101078.09;;;14.65;100.00
5574;BME280;2563;52.242;7.956;2022-10-17T04:11:03;101082.94;;;14.75;100.00
5574;BME280;2563;52.242;7.956;2022-10-17T04:13:29;101090.34;;;14.87;100.00
5574;BME280;2563;52.242;7.956;2022-10-17T04:15:56;101091.22;;;14.86;100.00
5574;BME280;2563;52.242;7.956;2022-10-17T04:18:22;101089.53;;;14.85;100.00
5574;BME280;2563;52.242;7.956;2022-10-17T04:20:48;101088.69;;;14.84;100.00
5574;BME280;2563;52.242;7.956;2022-10-17T04:23:13;101091.91;;;14.91;100.00
5574;BME280;2563;52.242;7.956;2022-10-17T04:25:39;101098.13;;;14.87;100.00
5574;BME280;2563;52.242;7.956;2022-10-17T04:28:04;101090.56;;;14.79;100.00
5574;BME280;2563;52.242;7.956;2022-10-17T04:30:29;101091.31;;;14.83;100.00
5574;BME280;2563;52.242;7.956;2022-10-17T04:32:54;101099.47;;;14.97;100.00
5574;BME280;2563;52.242;7.956;2022-10-17T04:35:20;101103.22;;;14.88;100.00
5574;BME280;2563;52.242;7.956;2022-10-17T04:37:46;101092.13;;;14.85;100.00
5574;BME280;2563;52.242;7.956;2022-10-17T04:40:11;101094.50;;;14.91;100.00
5574;BME280;2563;52.242;7.956;2022-10-17T04:42:36;101087.63;;;14.90;100.00
5574;BME280;2563;52.242;7.956;2022-10-17T04:45:02;101097.03;;;14.93;100.00
5574;BME280;2563;52.242;7.956;2022-10-17T04:47:28;101099.78;;;14.88;100.00
5574;BME280;2563;52.242;7.956;2022-10-17T04:49:53;101099.69;;;14.91;100.00
5574;BME280;2563;52.242;7.956;2022-10-17T04:52:18;101103.38;;;14.84;100.00
5574;BME280;2563;52.242;7.956;2022-10-17T04:54:44;101103.38;;;14.84;100.00
5574;BME280;2563;52.242;7.956;2022-10-17T04:57:09;101103.06;;;14.93;100.00
5574;BME280;2563;52.242;7.956;2022-10-17T04:59:35;101105.56;;;14.96;100.00
5574;BME280;2563;52.242;7.956;2022-10-17T05:02:00;101101.28;;;14.95;100.00
5574;BME280;2563;52.242;7.956;2022-10-17T05:04:25;101099.63;;;14.93;100.00
5574;BME280;2563;52.242;7.956;2022-10-17T05:06:51;101097.19;;;14.88;100.00
5574;BME280;2563;52.242;7.956;2022-10-17T05:09:16;101099.81;;;14.86;100.00
5574;BME280;2563;52.242;7.956;2022-10-17T05:11:41;101094.72;;;14.85;100.00
5574;BME280;2563;52.242;7.956;2022-10-17T05:14:07;101081.44;;;14.94;100.00
5574;BME280;2563;52.242;7.956;2022-10-17T05:16:33;101090.59;;;15.04;100.00
5574;BME280;2563;52.242;7.956;2022-10-17T05:19:00;101087.22;;;15.02;100.00
5574;BME280;2563;52.242;7.956;2022-10-17T05:21:27;101085.41;;;15.04;100.00
5574;BME280;2563;52.242;7.956;2022-10-17T05:23:53;101078.47;;;15.05;100.00
5574;BME280;2563;52.242;7.956;2022-10-17T05:26:19;101072.13;;;15.14;100.00
5574;BME280;2563;52.242;7.956;2022-10-17T05:28:45;101075.47;;;15.17;100.00
5574;BME280;2563;52.242;7.956;2022-10-17T05:31:11;101068.94;;;15.30;100.00
5574;BME280;2563;52.242;7.956;2022-10-17T05:33:37;101064.47;;;15.34;100.00
5574;BME280;2563;52.242;7.956;2022-10-17T05:36:03;101059.56;;;15.26;100.00
5574;BME280;2563;52.242;7.956;2022-10-17T05:38:29;101059.22;;;15.37;100.00
5574;BME280;2563;52.242;7.956;2022-10-17T05:40:58;101055.53;;;15.43;100.00
5574;BME280;2563;52.242;7.956;2022-10-17T05:43:24;101050.69;;;15.34;100.00
5574;BME280;2563;52.242;7.956;2022-10-17T05:45:49;101053.44;;;15.29;100.00
5574;BME280;2563;52.242;7.956;2022-10-17T05:48:15;101052.56;;;15.30;100.00
5574;BME280;2563;52.242;7.956;2022-10-17T05:50:40;101043.84;;;15.31;100.00
5574;BME280;2563;52.242;7.956;2022-10-17T05:53:05;101039.47;;;15.57;100.00
5574;BME280;2563;52.242;7.956;2022-10-17T05:55:30;101032.34;;;15.62;100.00
5574;BME280;2563;52.242;7.956;2022-10-17T05:57:56;101036.75;;;15.60;100.00
5574;BME280;2563;52.242;7.956;2022-10-17T06:00:22;101017.97;;;15.53;100.00
5574;BME280;2563;52.242;7.956;2022-10-17T06:02:47;101033.25;;;15.61;100.00
5574;BME280;2563;52.242;7.956;2022-10-17T06:05:13;101023.09;;;15.55;100.00
5574;BME280;2563;52.242;7.956;2022-10-17T06:07:39;101019.59;;;15.56;100.00
5574;BME280;2563;52.242;7.956;2022-10-17T06:10:05;101019.72;;;15.52;100.00
5574;BME280;2563;52.242;7.956;2022-10-17T06:12:31;101010.19;;;15.53;100.00
5574;BME280;2563;52.242;7.956;2022-10-17T06:14:56;101008.22;;;15.60;100.00
5574;BME280;2563;52.242;7.956;2022-10-17T06:17:21;101006.28;;;15.65;100.00
5574;BME280;2563;52.242;7.956;2022-10-17T06:19:47;100994.94;;;15.67;100.00
5574;BME280;2563;52.242;7.956;2022-10-17T06:22:12;100993.00;;;15.74;100.00
5574;BME280;2563;52.242;7.956;2022-10-17T06:24:37;100971.25;;;15.77;100.00
5574;BME280;2563;52.242;7.956;2022-10-17T06:27:03;100943.63;;;15.76;100.00
5574;BME280;2563;52.242;7.956;2022-10-17T06:29:28;100920.00;;;15.82;100.00
5574;BME280;2563;52.242;7.956;2022-10-17T06:31:54;100900.44;;;15.95;100.00
5574;BME280;2563;52.242;7.956;2022-10-17T06:34:19;100880.97;;;16.05;100.00
5574;BME280;2563;52.242;7.956;2022-10-17T06:36:45;100868.31;;;15.98;100.00
5574;BME280;2563;52.242;7.956;2022-10-17T06:39:10;100855.97;;;16.03;100.00
5574;BME280;2563;52.242;7.956;2022-10-17T06:41:35;100833.31;;;16.06;100.00
5574;BME280;2563;52.242;7.956;2022-10-17T06:44:01;100821.25;;;16.05;100.00
5574;BME280;2563;52.242;7.956;2022-10-17T06:46:32;100811.94;;;16.20;100.00
5574;BME280;2563;52.242;7.956;2022-10-17T06:48:57;100806.34;;;16.29;100.00
5574;BME280;2563;52.242;7.956;2022-10-17T06:51:22;100794.00;;;16.34;100.00
5574;BME280;2563;52.242;7.956;2022-10-17T06:53:47;100793.38;;;16.29;100.00
5574;BME280;2563;52.242;7.956;2022-10-17T06:56:13;100790.22;;;16.42;100.00
5574;BME280;2563;52.242;7.956;2022-10-17T06:58:39;100799.97;;;16.36;100.00
5574;BME280;2563;52.242;7.956;2022-10-17T07:01:09;100781.31;;;16.28;100.00
5574;BME280;2563;52.242;7.956;2022-10-17T07:03:35;100781.09;;;16.33;100.00
5574;BME280;2563;52.242;7.956;2022-10-17T07:06:01;100780.16;;;16.34;100.00
5574;BME280;2563;52.242;7.956;2022-10-17T07:08:26;100774.91;;;16.35;100.00
5574;BME280;2563;52.242;7.956;2022-10-17T07:10:52;100763.59;;;16.36;100.00
5574;BME280;2563;52.242;7.956;2022-10-17T07:13:18;100768.25;;;16.49;100.00
5574;BME280;2563;52.242;7.956;2022-10-17T07:15:44;100762.69;;;16.56;100.00
5574;BME280;2563;52.242;7.956;2022-10-17T07:18:10;100740.78;;;16.62;100.00
5574;BME280;2563;52.242;7.956;2022-10-17T07:20:36;100733.97;;;16.59;100.00
5574;BME280;2563;52.242;7.956;2022-10-17T07:23:02;100734.81;;;16.60;100.00
5574;BME280;2563;52.242;7.956;2022-10-17T07:25:28;100724.06;;;16.68;100.00
5574;BME280;2563;52.242;7.956;2022-10-17T07:27:54;100727.59;;;16.67;100.00
5574;BME280;2563;52.242;7.956;2022-10-17T07:30:20;100725.31;;;16.78;100.00
5574;BME280;2563;52.242;7.956;2022-10-17T07:32:45;100720.75;;;16.83;100.00
5574;BME280;2563;52.242;7.956;2022-10-17T07:35:11;100720.06;;;16.79;100.00
5574;BME280;2563;52.242;7.956;2022-10-17T07:37:37;100722.47;;;16.84;100.00
5574;BME280;2563;52.242;7.956;2022-10-17T07:40:04;100732.69;;;16.87;100.00
5574;BME280;2563;52.242;7.956;2022-10-17T07:42:31;100732.69;;;16.87;100.00
5574;BME280;2563;52.242;7.956;2022-10-17T07:44:56;100724.69;;;16.92;100.00
5574;BME280;2563;52.242;7.956;2022-10-17T07:47:22;100724.53;;;16.95;100.00
5574;BME280;2563;52.242;7.956;2022-10-17T07:49:47;100724.19;;;17.03;100.00
5574;BME280;2563;52.242;7.956;2022-10-17T07:52:13;100721.44;;;17.06;100.00
5574;BME280;2563;52.242;7.956;2022-10-17T07:54:39;100719.28;;;17.14;100.00
5574;BME280;2563;52.242;7.956;2022-10-17T07:57:04;100717.22;;;17.20;100.00
5574;BME280;2563;52.242;7.956;2022-10-17T07:59:31;100709.03;;;17.28;100.00
5574;BME280;2563;52.242;7.956;2022-10-17T08:01:57;100700.41;;;17.28;100.00
5574;BME280;2563;52.242;7.956;2022-10-17T08:04:23;100697.63;;;17.31;100.00
5574;BME280;2563;52.242;7.956;2022-10-17T08:06:48;100696.56;;;17.35;100.00
5574;BME280;2563;52.242;7.956;2022-10-17T08:09:14;100706.09;;;17.36;100.00
5574;BME280;2563;52.242;7.956;2022-10-17T08:11:40;100695.41;;;17.40;100.00
5574;BME280;2563;52.242;7.956;2022-10-17T08:14:08;100688.47;;;17.41;100.00
5574;BME280;2563;52.242;7.956;2022-10-17T08:16:33;100681.91;;;17.34;100.00
5574;BME280;2563;52.242;7.956;2022-10-17T08:18:59;100668.44;;;17.43;100.00
5574;BME280;2563;52.242;7.956;2022-10-17T08:21:25;100681.88;;;17.51;100.00
5574;BME280;2563;52.242;7.956;2022-10-17T08:23:50;100679.03;;;17.56;100.00
5574;BME280;2563;52.242;7.956;2022-10-17T08:26:16;100674.97;;;17.50;100.00
5574;BME280;2563;52.242;7.956;2022-10-17T08:28:41;100669.63;;;17.53;100.00
5574;BME280;2563;52.242;7.956;2022-10-17T08:31:12;100679.81;;;17.58;100.00
5574;BME280;2563;52.242;7.956;2022-10-17T08:33:37;100690.00;;;17.78;100.00
5574;BME280;2563;52.242;7.956;2022-10-17T08:36:04;100707.25;;;17.98;100.00
5574;BME280;2563;52.242;7.956;2022-10-17T08:38:31;100725.25;;;18.19;100.00
5574;BME280;2563;52.242;7.956;2022-10-17T08:40:59;100746.66;;;18.41;100.00
5574;BME280;2563;52.242;7.956;2022-10-17T08:43:39;100776.22;;;18.40;100.00
5574;BME280;2563;52.242;7.956;2022-10-17T08:46:07;100793.41;;;18.44;100.00
5574;BME280;2563;52.242;7.956;2022-10-17T08:48:42;100805.84;;;18.39;100.00
5574;BME280;2563;52.242;7.956;2022-10-17T08:51:21;100802.31;;;18.40;100.00
5574;BME280;2563;52.242;7.956;2022-10-17T08:53:54;100805.50;;;18.45;100.00
5574;BME280;2563;52.242;7.956;2022-10-17T08:56:41;100801.47;;;18.40;100.00
5574;BME280;2563;52.242;7.956;2022-10-17T08:59:16;100796.25;;;18.40;100.00
5574;BME280;2563;52.242;7.956;2022-10-17T09:10:09;100802.78;;;18.31;100.00
5574;BME280;2563;52.242;7.956;2022-10-17T09:18:31;100796.78;;;18.62;100.00
5574;BME280;2563;52.242;7.956;2022-10-17T09:23:55;100787.69;;;18.54;100.00
5574;BME280;2563;52.242;7.956;2022-10-17T09:26:22;100782.97;;;18.44;100.00
5574;BME280;2563;52.242;7.956;2022-10-17T09:28:54;100767.25;;;18.46;100.00
5574;BME280;2563;52.242;7.956;2022-10-17T09:31:24;100767.44;;;18.59;100.00
5574;BME280;2563;52.242;7.956;2022-10-17T09:33:53;100765.81;;;18.72;100.00
5574;BME280;2563;52.242;7.956;2022-10-17T09:36:27;100765.22;;;18.84;100.00
5574;BME280;2563;52.242;7.956;2022-10-17T09:38:55;100759.38;;;18.95;100.00
5574;BME280;2563;52.242;7.956;2022-10-17T09:41:40;100751.91;;;19.35;100.00
5574;BME280;2563;52.242;7.956;2022-10-17T09:49:29;100730.84;;;19.68;100.00
5574;BME280;2563;52.242;7.956;2022-10-17T09:51:56;100717.34;;;19.90;100.00
5574;BME280;2563;52.242;7.956;2022-10-17T09:54:40;100717.41;;;20.32;100.00
5574;BME280;2563;52.242;7.956;2022-10-17T09:57:08;100697.50;;;20.29;100.00
5574;BME280;2563;52.242;7.956;2022-10-17T09:59:43;100705.47;;;20.13;100.00
5574;BME280;2563;52.242;7.956;2022-10-17T10:04:57;100692.56;;;20.25;100.00
5574;BME280;2563;52.242;7.956;2022-10-17T10:07:28;100693.13;;;20.15;100.00
5574;BME280;2563;52.242;7.956;2022-10-17T10:09:55;100701.09;;;20.00;100.00
5574;BME280;2563;52.242;7.956;2022-10-17T10:12:24;100704.47;;;19.87;100.00
5574;BME280;2563;52.242;7.956;2022-10-17T10:14:50;100697.19;;;19.78;100.00
5574;BME280;2563;52.242;7.956;2022-10-17T10:19:50;100695.00;;;20.13;100.00
5574;BME280;2563;52.242;7.956;2022-10-17T10:22:17;100691.44;;;20.43;100.00
5574;BME280;2563;52.242;7.956;2022-10-17T10:24:43;100689.66;;;20.44;100.00
5574;BME280;2563;52.242;7.956;2022-10-17T10:27:14;100697.44;;;20.31;100.00
5574;BME280;2563;52.242;7.956;2022-10-17T10:29:42;100699.91;;;20.47;100.00
5574;BME280;2563;52.242;7.956;2022-10-17T10:32:25;100694.78;;;20.59;100.00
5574;BME280;2563;52.242;7.956;2022-10-17T10:37:27;100707.66;;;21.30;100.00
5574;BME280;2563;52.242;7.956;2022-10-17T10:39:58;100723.22;;;21.58;100.00
5574;BME280;2563;52.242;7.956;2022-10-17T10:42:30;100729.91;;;21.50;100.00
5574;BME280;2563;52.242;7.956;2022-10-17T10:45:00;100734.00;;;21.14;100.00
5574;BME280;2563;52.242;7.956;2022-10-17T10:47:27;100744.91;;;21.20;100.00
5574;BME280;2563;52.242;7.956;2022-10-17T10:50:16;100745.13;;;21.30;100.00
5574;BME280;2563;52.242;7.956;2022-10-17T10:52:46;100753.72;;;21.32;100.00
5574;BME280;2563;52.242;7.956;2022-10-17T10:55:30;100758.66;;;21.24;100.00
5574;BME280;2563;52.242;7.956;2022-10-17T10:58:02;100776.81;;;21.13;100.00
5574;BME280;2563;52.242;7.956;2022-10-17T11:00:31;100772.97;;;20.91;100.00
5574;BME280;2563;52.242;7.956;2022-10-17T11:03:08;100780.19;;;20.73;100.00
5574;BME280;2563;52.242;7.956;2022-10-17T11:05:46;100786.31;;;20.59;100.00
5574;BME280;2563;52.242;7.956;2022-10-17T11:08:33;100794.72;;;20.36;100.00
5574;BME280;2563;52.242;7.956;2022-10-17T11:11:12;100806.75;;;20.24;100.00
5574;BME280;2563;52.242;7.956;2022-10-17T11:13:47;100794.31;;;20.13;100.00
5574;BME280;2563;52.242;7.956;2022-10-17T11:16:22;100791.91;;;20.10;100.00
5574;BME280;2563;52.242;7.956;2022-10-17T11:19:27;100789.00;;;20.01;100.00
5574;BME280;2563;52.242;7.956;2022-10-17T11:27:47;100773.88;;;19.91;100.00
5574;BME280;2563;52.242;7.956;2022-10-17T11:30:15;100766.69;;;19.81;100.00
5574;BME280;2563;52.242;7.956;2022-10-17T11:35:19;100775.81;;;19.73;100.00
5574;BME280;2563;52.242;7.956;2022-10-17T11:40:35;100788.31;;;19.52;100.00
5574;BME280;2563;52.242;7.956;2022-10-17T11:45:49;100798.44;;;19.43;100.00
5574;BME280;2563;52.242;7.956;2022-10-17T11:50:50;100735.25;;;19.52;100.00
5574;BME280;2563;52.242;7.956;2022-10-17T11:53:21;100711.94;;;19.63;100.00
5574;BME280;2563;52.242;7.956;2022-10-17T11:55:49;100728.63;;;19.91;100.00
5574;BME280;2563;52.242;7.956;2022-10-17T11:58:41;100736.53;;;20.18;100.00
5574;BME280;2563;52.242;7.956;2022-10-17T12:02:00;100736.94;;;20.26;100.00
5574;BME280;2563;52.242;7.956;2022-10-17T12:12:26;100757.09;;;20.10;100.00
5574;BME280;2563;52.242;7.956;2022-10-17T12:14:52;100746.72;;;20.08;100.00
5574;BME280;2563;52.242;7.956;2022-10-17T12:17:34;100759.97;;;20.05;100.00
5574;BME280;2563;52.242;7.956;2022-10-17T12:22:50;100763.53;;;19.90;100.00
5574;BME280;2563;52.242;7.956;2022-10-17T12:25:18;100764.56;;;19.87;100.00
5574;BME280;2563;52.242;7.956;2022-10-17T12:27:46;100760.16;;;19.73;100.00
5574;BME280;2563;52.242;7.956;2022-10-17T12:35:37;100755.28;;;19.82;100.00
5574;BME280;2563;52.242;7.956;2022-10-17T12:38:23;100740.72;;;19.77;100.00
5574;BME280;2563;52.242;7.956;2022-10-17T12:40:51;100715.00;;;19.86;100.00
5574;BME280;2563;52.242;7.956;2022-10-17T12:45:55;100723.03;;;19.97;100.00
5574;BME280;2563;52.242;7.956;2022-10-17T12:53:25;100705.28;;;20.16;100.00
5574;BME280;2563;52.242;7.956;2022-10-17T12:55:58;100692.97;;;20.18;100.00
5574;BME280;2563;52.242;7.956;2022-10-17T12:58:24;100696.31;;;20.21;100.00
5574;BME280;2563;52.242;7.956;2022-10-17T13:00:54;100706.50;;;20.11;100.00
5574;BME280;2563;52.242;7.956;2022-10-17T13:03:47;100705.09;;;19.91;100.00
5574;BME280;2563;52.242;7.956;2022-10-17T13:06:20;100703.59;;;19.87;100.00
5574;BME280;2563;52.242;7.956;2022-10-17T13:08:56;100702.03;;;19.84;100.00
5574;BME280;2563;52.242;7.956;2022-10-17T13:11:24;100707.72;;;19.76;100.00
5574;BME280;2563;52.242;7.956;2022-10-17T13:13:56;100702.69;;;19.73;100.00
5574;BME280;2563;52.242;7.956;2022-10-17T13:19:00;100722.50;;;19.31;100.00
5574;BME280;2563;52.242;7.956;2022-10-17T13:21:26;100727.53;;;19.20;100.00
5574;BME280;2563;52.242;7.956;2022-10-17T13:23:52;100723.00;;;19.08;100.00
5574;BME280;2563;52.242;7.956;2022-10-17T13:26:26;100730.47;;;19.14;100.00
5574;BME280;2563;52.242;7.956;2022-10-17T13:29:09;100719.09;;;19.15;100.00
5574;BME280;2563;52.242;7.956;2022-10-17T13:31:38;100735.69;;;19.14;100.00
5574;BME280;2563;52.242;7.956;2022-10-17T13:34:15;100730.81;;;19.08;100.00
5574;BME280;2563;52.242;7.956;2022-10-17T13:36:41;100743.47;;;18.84;100.00
5574;BME280;2563;52.242;7.956;2022-10-17T13:39:09;100739.59;;;18.75;100.00
5574;BME280;2563;52.242;7.956;2022-10-17T13:41:36;100736.56;;;18.67;100.00
5574;BME280;2563;52.242;7.956;2022-10-17T13:44:06;100739.41;;;18.62;100.00
5574;BME280;2563;52.242;7.956;2022-10-17T13:46:34;100747.34;;;18.61;100.00
5574;BME280;2563;52.242;7.956;2022-10-17T13:49:53;100754.56;;;18.56;100.00
5574;BME280;2563;52.242;7.956;2022-10-17T13:51:54;100735.88;;;18.47;100.00
5574;BME280;2563;52.242;7.956;2022-10-17T13:54:40;100743.94;;;18.43;100.00
5574;BME280;2563;52.242;7.956;2022-10-17T13:57:18;100742.34;;;18.40;100.00
5574;BME280;2563;52.242;7.956;2022-10-17T13:59:45;100735.47;;;18.39;100.00
5574;BME280;2563;52.242;7.956;2022-10-17T14:02:31;100727.06;;;18.34;100.00
5574;BME280;2563;52.242;7.956;2022-10-17T14:05:10;100720.50;;;18.27;100.00
5574;BME280;2563;52.242;7.956;2022-10-17T14:07:38;100717.88;;;18.27;100.00
5574;BME280;2563;52.242;7.956;2022-10-17T14:10:04;100721.75;;;18.20;100.00
5574;BME280;2563;52.242;7.956;2022-10-17T14:12:32;100715.06;;;18.14;100.00
5574;BME280;2563;52.242;7.956;2022-10-17T14:14:58;100706.44;;;18.14;100.00
5574;BME280;2563;52.242;7.956;2022-10-17T14:17:27;100699.56;;;18.13;100.00
5574;BME280;2563;52.242;7.956;2022-10-17T14:19:56;100699.56;;;18.13;100.00
5574;BME280;2563;52.242;7.956;2022-10-17T14:24:48;100682.38;;;18.09;100.00
5574;BME280;2563;52.242;7.956;2022-10-17T14:27:32;100689.63;;;18.03;100.00
5574;BME280;2563;52.242;7.956;2022-10-17T14:30:01;100680.50;;;17.95;100.00
5574;BME280;2563;52.242;7.956;2022-10-17T14:32:33;100675.31;;;17.95;100.00
5574;BME280;2563;52.242;7.956;2022-10-17T14:35:00;100667.56;;;17.93;100.00
5574;BME280;2563;52.242;7.956;2022-10-17T14:37:43;100661.69;;;17.90;100.00
5574;BME280;2563;52.242;7.956;2022-10-17T14:40:20;100650.44;;;17.89;100.00
5574;BME280;2563;52.242;7.956;2022-10-17T14:42:47;100638.19;;;17.91;100.00
5574;BME280;2563;52.242;7.956;2022-10-17T14:45:28;100634.63;;;17.92;100.00
5574;BME280;2563;52.242;7.956;2022-10-17T14:47:59;100623.28;;;17.93;100.00
5574;BME280;2563;52.242;7.956;2022-10-17T14:50:29;100625.88;;;17.93;100.00